Time;durP1;ratioP1;P1;durP2;ratioP2;P2;SDS_P1;SDS_P2;PMS_P1;PMS_P2;Temp;Humidity;BMP_temperature;BMP_pressure;BME280_temperature;BME280_humidity;BME280_pressure;Samples;Min_cycle;Max_cycle;Signal;HPM_P1;HPM_P2
2021/08/08 00:00:09;;;;;;;2.97;2.78;;;;;;;;;;5113558;28;20027;-60
2021/08/08 00:02:38;;;;;;;2.60;2.40;;;;;;;;;;5113582;28;20506;-61
2021/08/08 00:05:04;;;;;;;2.83;2.55;;;;;;;;;;5113340;28;20051;-65
2021/08/08 00:07:30;;;;;;;2.90;2.50;;;;;;;;;;5113301;28;20479;-65
2021/08/08 00:09:55;;;;;;;2.67;2.47;;;;;;;;;;5113595;28;20038;-64
2021/08/08 00:12:21;;;;;;;3.17;2.30;;;;;;;;;;5113377;28;20036;-65
2021/08/08 00:14:46;;;;;;;2.10;2.00;;;;;;;;;;5113256;28;20066;-65
2021/08/08 00:17:12;;;;;;;3.00;2.63;;;;;;;;;;5095250;28;20035;-65
2021/08/08 00:19:38;;;;;;;2.58;2.38;;;;;;;;;;5095234;28;20115;-65
2021/08/08 00:22:04;;;;;;;2.92;2.60;;;;;;;;;;5113500;28;20035;-65
2021/08/08 00:24:30;;;;;;;2.50;2.30;;;;;;;;;;5113092;28;20091;-65
2021/08/08 00:26:55;;;;;;;2.63;2.42;;;;;;;;;;5113269;28;20112;-61
2021/08/08 00:29:21;;;;;;;3.33;2.53;;;;;;;;;;5098581;28;20024;-61
2021/08/08 00:31:46;;;;;;;2.78;2.50;;;;;;;;;;5116882;28;20031;-61
2021/08/08 00:34:12;;;;;;;2.60;2.40;;;;;;;;;;5099107;28;20040;-61
2021/08/08 00:36:38;;;;;;;3.20;2.90;;;;;;;;;;5098565;28;20041;-61
2021/08/08 00:39:04;;;;;;;2.55;2.35;;;;;;;;;;5116899;28;20024;-61
2021/08/08 00:41:30;;;;;;;2.20;2.10;;;;;;;;;;5098630;28;20077;-61
2021/08/08 00:43:55;;;;;;;2.40;2.20;;;;;;;;;;5098949;28;20027;-61
2021/08/08 00:46:22;;;;;;;3.88;2.50;;;;;;;;;;5098493;28;20483;-62
2021/08/08 00:48:47;;;;;;;2.40;2.20;;;;;;;;;;5098731;28;20035;-61
2021/08/08 00:51:18;;;;;;;2.20;2.00;;;;;;;;;;5098139;28;20036;-61
2021/08/08 00:53:46;;;;;;;2.30;2.10;;;;;;;;;;5082041;28;20437;-61
2021/08/08 00:56:12;;;;;;;2.00;1.90;;;;;;;;;;5098270;28;20119;-61
2021/08/08 00:58:38;;;;;;;2.38;1.88;;;;;;;;;;5116359;28;20040;-62
2021/08/08 01:01:04;;;;;;;2.13;2.03;;;;;;;;;;5116580;28;20043;-61
2021/08/08 01:03:30;;;;;;;2.28;2.17;;;;;;;;;;5098453;28;20059;-61
2021/08/08 01:06:14;;;;;;;2.03;1.92;;;;;;;;;;5097797;28;20039;-61
2021/08/08 01:08:47;;;;;;;2.42;2.22;;;;;;;;;;5098273;28;20036;-61
2021/08/08 01:11:13;;;;;;;2.17;1.98;;;;;;;;;;5116499;28;20036;-61
2021/08/08 01:13:40;;;;;;;2.42;2.10;;;;;;;;;;5097993;28;20028;-61
2021/08/08 01:16:07;;;;;;;2.85;2.10;;;;;;;;;;5080966;28;20130;-61
2021/08/08 01:18:33;;;;;;;2.90;2.25;;;;;;;;;;5097652;28;20505;-61
2021/08/08 01:21:00;;;;;;;2.22;2.03;;;;;;;;;;5097771;28;20380;-61
2021/08/08 01:23:27;;;;;;;2.55;2.33;;;;;;;;;;5098014;28;20032;-61
2021/08/08 01:25:53;;;;;;;2.97;1.98;;;;;;;;;;5080849;28;20088;-61
2021/08/08 01:28:20;;;;;;;2.17;1.98;;;;;;;;;;5116274;28;20031;-61
2021/08/08 01:30:46;;;;;;;2.80;2.10;;;;;;;;;;5097699;28;20462;-61
2021/08/08 01:33:12;;;;;;;2.05;1.95;;;;;;;;;;5116151;28;20058;-61
2021/08/08 01:35:55;;;;;;;2.65;2.25;;;;;;;;;;5097546;28;20046;-61
2021/08/08 01:38:28;;;;;;;2.20;2.00;;;;;;;;;;5097660;28;20097;-61
2021/08/08 01:41:02;;;;;;;2.05;1.95;;;;;;;;;;5115521;28;20031;-61
2021/08/08 01:43:30;;;;;;;3.05;2.03;;;;;;;;;;5097516;28;20077;-61
2021/08/08 01:46:03;;;;;;;2.60;2.40;;;;;;;;;;5097285;28;20031;-61
2021/08/08 01:48:33;;;;;;;2.38;2.00;;;;;;;;;;5097568;28;20061;-61
2021/08/08 01:50:59;;;;;;;3.65;2.20;;;;;;;;;;5097078;28;20058;-61
2021/08/08 01:53:26;;;;;;;3.55;2.33;;;;;;;;;;5097595;28;20483;-61
2021/08/08 01:55:51;;;;;;;2.50;2.08;;;;;;;;;;5097411;28;20043;-61
2021/08/08 01:58:17;;;;;;;2.42;2.20;;;;;;;;;;5097092;28;20028;-61
2021/08/08 02:00:47;;;;;;;2.42;1.83;;;;;;;;;;5115734;28;20073;-61
2021/08/08 02:03:19;;;;;;;2.08;1.98;;;;;;;;;;5097028;28;20034;-61
2021/08/08 02:05:50;;;;;;;;;;;;;;;;;;5097453;28;20035;-61
2021/08/08 02:08:18;;;;;;;2.15;2.03;;;;;;;;;;5096855;28;19938;-61
2021/08/08 02:11:01;;;;;;;2.10;2.00;;;;;;;;;;5096847;28;20111;-61
2021/08/08 02:13:35;;;;;;;1.90;1.80;;;;;;;;;;5097057;28;20032;-61
2021/08/08 02:16:02;;;;;;;2.67;2.03;;;;;;;;;;5096734;28;20059;-61
2021/08/08 02:18:28;;;;;;;1.70;1.60;;;;;;;;;;5079966;28;20111;-61
2021/08/08 02:20:54;;;;;;;2.35;1.80;;;;;;;;;;5096412;28;20547;-61
2021/08/08 02:23:20;;;;;;;2.25;2.15;;;;;;;;;;5096663;28;20035;-61
2021/08/08 02:25:50;;;;;;;1.92;1.83;;;;;;;;;;5079994;28;20135;-65
2021/08/08 02:28:22;;;;;;;2.22;2.13;;;;;;;;;;5096920;28;20032;-64
2021/08/08 02:30:48;;;;;;;2.08;1.92;;;;;;;;;;5096722;28;20066;-64
2021/08/08 02:33:15;;;;;;;2.42;2.00;;;;;;;;;;5096818;28;20073;-65
2021/08/08 02:35:41;;;;;;;2.67;2.25;;;;;;;;;;5096569;28;20038;-65
2021/08/08 02:38:08;;;;;;;2.10;2.00;;;;;;;;;;5096225;28;20031;-65
2021/08/08 02:40:35;;;;;;;2.10;2.00;;;;;;;;;;5114559;28;20039;-65
2021/08/08 02:43:03;;;;;;;2.13;2.03;;;;;;;;;;5096340;28;20035;-65
2021/08/08 02:45:30;;;;;;;2.50;2.00;;;;;;;;;;5096042;28;20076;-65
2021/08/08 02:47:58;;;;;;;2.13;2.00;;;;;;;;;;5096195;28;20026;-65
2021/08/08 02:50:24;;;;;;;2.85;1.95;;;;;;;;;;5095558;28;20399;-62
2021/08/08 02:52:53;;;;;;;2.10;1.90;;;;;;;;;;5095592;28;20036;-61
2021/08/08 02:55:20;;;;;;;2.03;1.88;;;;;;;;;;5096219;28;20448;-62
2021/08/08 02:57:51;;;;;;;2.25;1.77;;;;;;;;;;5096016;28;20039;-65
2021/08/08 03:00:18;;;;;;;1.95;1.85;;;;;;;;;;5095948;28;20039;-64
2021/08/08 03:02:44;;;;;;;2.20;2.10;;;;;;;;;;5096169;28;20036;-65
2021/08/08 03:05:10;;;;;;;2.30;2.00;;;;;;;;;;5096013;28;20129;-61
2021/08/08 03:07:36;;;;;;;3.10;2.35;;;;;;;;;;5095768;28;20114;-61
2021/08/08 03:10:03;;;;;;;2.42;2.13;;;;;;;;;;5095819;28;20142;-61
2021/08/08 03:12:28;;;;;;;6.10;2.17;;;;;;;;;;5113913;28;20024;-64
2021/08/08 03:14:53;;;;;;;3.10;2.30;;;;;;;;;;5095639;28;20039;-62
2021/08/08 03:17:19;;;;;;;1.80;1.70;;;;;;;;;;5095848;28;20088;-61
2021/08/08 03:19:46;;;;;;;2.47;1.85;;;;;;;;;;5096026;28;20043;-61
2021/08/08 03:22:12;;;;;;;1.77;1.67;;;;;;;;;;5095553;28;20042;-61
2021/08/08 03:24:42;;;;;;;2.47;2.28;;;;;;;;;;5095418;28;20042;-61
2021/08/08 03:27:07;;;;;;;3.63;2.60;;;;;;;;;;5095885;28;20027;-61
2021/08/08 03:29:34;;;;;;;2.35;2.25;;;;;;;;;;5095350;28;20032;-61
2021/08/08 03:31:59;;;;;;;2.60;2.38;;;;;;;;;;5095450;28;20387;-61
2021/08/08 03:34:25;;;;;;;2.50;1.70;;;;;;;;;;5113907;28;20118;-61
2021/08/08 03:36:51;;;;;;;2.03;1.92;;;;;;;;;;5095436;28;20030;-61
2021/08/08 03:39:20;;;;;;;3.72;2.28;;;;;;;;;;5113894;28;20096;-60
2021/08/08 03:41:45;;;;;;;2.67;2.00;;;;;;;;;;5095345;28;20035;-61
2021/08/08 03:44:14;;;;;;;2.53;2.33;;;;;;;;;;5095542;28;20493;-61
2021/08/08 03:46:40;;;;;;;4.60;2.53;;;;;;;;;;5095492;28;20028;-61
2021/08/08 03:49:06;;;;;;;4.18;2.17;;;;;;;;;;5095609;28;20407;-61
2021/08/08 03:51:32;;;;;;;2.67;2.20;;;;;;;;;;5113099;28;20051;-60
2021/08/08 03:53:57;;;;;;;3.30;2.13;;;;;;;;;;5095269;28;20486;-61
2021/08/08 03:56:23;;;;;;;2.63;2.15;;;;;;;;;;5095257;28;20035;-60
2021/08/08 03:58:48;;;;;;;1.90;1.80;;;;;;;;;;5113464;28;20115;-61
2021/08/08 04:01:15;;;;;;;2.35;1.88;;;;;;;;;;5095436;28;20475;-61
2021/08/08 04:03:41;;;;;;;4.18;2.28;;;;;;;;;;5098949;28;20047;-61
2021/08/08 04:06:08;;;;;;;3.85;1.73;;;;;;;;;;5099348;28;20115;-61
2021/08/08 04:08:34;;;;;;;2.22;1.90;;;;;;;;;;5099262;28;20402;-61
2021/08/08 04:11:02;;;;;;;1.55;1.42;;;;;;;;;;5099000;28;20024;-61
2021/08/08 04:13:29;;;;;;;1.35;1.25;;;;;;;;;;5099267;28;20062;-61
2021/08/08 04:15:54;;;;;;;2.05;1.55;;;;;;;;;;5099352;28;20439;-61
2021/08/08 04:18:22;;;;;;;1.10;1.10;;;;;;;;;;5099294;28;20402;-61
2021/08/08 04:20:48;;;;;;;1.20;1.20;;;;;;;;;;5099460;28;20023;-60
2021/08/08 04:23:17;;;;;;;2.17;1.27;;;;;;;;;;5099255;28;20062;-61
2021/08/08 04:25:45;;;;;;;3.75;1.50;;;;;;;;;;5098679;28;20027;-63
2021/08/08 04:28:12;;;;;;;2.47;1.00;;;;;;;;;;5099204;28;20031;-63
2021/08/08 04:30:39;;;;;;;1.23;1.13;;;;;;;;;;5098963;28;20058;-61
2021/08/08 04:33:04;;;;;;;3.92;0.93;;;;;;;;;;5117243;28;20062;-61
2021/08/08 04:35:31;;;;;;;2.05;1.05;;;;;;;;;;5099140;28;20030;-61
2021/08/08 04:37:57;;;;;;;0.93;0.90;;;;;;;;;;5098822;28;20407;-61
2021/08/08 04:40:24;;;;;;;0.82;0.80;;;;;;;;;;5098774;28;20039;-61
2021/08/08 04:42:50;;;;;;;1.30;1.00;;;;;;;;;;5098590;28;20044;-60
2021/08/08 04:45:15;;;;;;;1.38;1.20;;;;;;;;;;5098348;28;20059;-61
2021/08/08 04:47:42;;;;;;;2.00;0.98;;;;;;;;;;5098629;28;20036;-61
2021/08/08 04:50:10;;;;;;;1.15;0.98;;;;;;;;;;5098536;28;20028;-61
2021/08/08 04:52:38;;;;;;;1.63;0.95;;;;;;;;;;5081289;28;20043;-61
2021/08/08 04:55:04;;;;;;;1.45;0.73;;;;;;;;;;5098357;28;20049;-61
2021/08/08 04:57:30;;;;;;;2.70;0.90;;;;;;;;;;5098747;28;20495;-61
2021/08/08 04:59:56;;;;;;;1.02;0.80;;;;;;;;;;5098535;28;20038;-61
2021/08/08 05:02:22;;;;;;;1.17;0.85;;;;;;;;;;5116403;28;20093;-61
2021/08/08 05:04:49;;;;;;;0.73;0.70;;;;;;;;;;5098001;28;20036;-61
2021/08/08 05:07:14;;;;;;;2.38;0.85;;;;;;;;;;5098025;28;20046;-61
2021/08/08 05:09:40;;;;;;;1.00;0.52;;;;;;;;;;5116280;28;20020;-61
2021/08/08 05:12:09;;;;;;;15.45;1.48;;;;;;;;;;5116327;28;20152;-66
2021/08/08 05:14:38;;;;;;;1.35;1.10;;;;;;;;;;5080431;28;20364;-66
2021/08/08 05:17:04;;;;;;;1.55;1.00;;;;;;;;;;5097983;28;20123;-65
2021/08/08 05:19:30;;;;;;;1.45;0.98;;;;;;;;;;5098010;28;20391;-65
2021/08/08 05:21:55;;;;;;;1.15;1.05;;;;;;;;;;5098310;28;20035;-64
2021/08/08 05:24:21;;;;;;;1.42;1.25;;;;;;;;;;5116273;28;20058;-64
2021/08/08 05:26:47;;;;;;;1.80;1.10;;;;;;;;;;5081073;28;20096;-64
2021/08/08 05:29:15;;;;;;;2.72;1.17;;;;;;;;;;5097962;28;20031;-63
2021/08/08 05:31:41;;;;;;;1.27;1.17;;;;;;;;;;5097848;28;20035;-64
2021/08/08 05:34:07;;;;;;;1.52;1.33;;;;;;;;;;5097721;28;20023;-64
2021/08/08 05:36:33;;;;;;;1.73;1.30;;;;;;;;;;5097206;28;20036;-65
2021/08/08 05:39:00;;;;;;;3.03;1.17;;;;;;;;;;5115696;28;20596;-66
2021/08/08 05:41:27;;;;;;;1.40;1.30;;;;;;;;;;5115619;28;20375;-66
2021/08/08 05:43:53;;;;;;;1.23;1.13;;;;;;;;;;5096613;28;20035;-65
2021/08/08 05:46:19;;;;;;;1.10;1.10;;;;;;;;;;5080031;28;20038;-65
2021/08/08 05:48:45;;;;;;;2.45;1.60;;;;;;;;;;5114984;28;20098;-65
2021/08/08 05:51:11;;;;;;;2.08;1.50;;;;;;;;;;5096107;28;20143;-65
2021/08/08 05:53:37;;;;;;;2.17;1.80;;;;;;;;;;5096520;28;20118;-65
2021/08/08 05:56:02;;;;;;;2.97;1.98;;;;;;;;;;5096593;28;20036;-65
2021/08/08 05:58:30;;;;;;;3.03;1.85;;;;;;;;;;5096295;28;20115;-64
2021/08/08 06:00:57;;;;;;;2.30;1.88;;;;;;;;;;5096479;28;20130;-63
2021/08/08 06:03:22;;;;;;;1.95;1.85;;;;;;;;;;5096388;28;20042;-64
2021/08/08 06:05:48;;;;;;;2.67;1.70;;;;;;;;;;5096271;28;20550;-64
2021/08/08 06:08:13;;;;;;;1.80;1.25;;;;;;;;;;5096087;28;20379;-61
2021/08/08 06:10:40;;;;;;;1.67;1.58;;;;;;;;;;5096168;28;20126;-60
2021/08/08 06:13:06;;;;;;;1.50;1.40;;;;;;;;;;5078064;28;20555;-60
2021/08/08 06:15:32;;;;;;;1.58;1.27;;;;;;;;;;5079493;28;20059;-61
2021/08/08 06:17:57;;;;;;;1.30;1.20;;;;;;;;;;5114400;28;20493;-63
2021/08/08 06:20:25;;;;;;;1.40;1.30;;;;;;;;;;5096325;28;20036;-65
2021/08/08 06:22:52;;;;;;;1.17;1.10;;;;;;;;;;5096770;28;20076;-64
2021/08/08 06:25:18;;;;;;;1.38;1.27;;;;;;;;;;5096469;28;20461;-64
2021/08/08 06:27:44;;;;;;;1.10;1.00;;;;;;;;;;5096531;28;20604;-63
2021/08/08 06:30:09;;;;;;;1.40;1.30;;;;;;;;;;5096683;28;20432;-63
2021/08/08 06:32:35;;;;;;;1.40;1.20;;;;;;;;;;5095890;28;20027;-63
2021/08/08 06:35:02;;;;;;;1.08;0.98;;;;;;;;;;5095724;28;20053;-63
2021/08/08 06:37:28;;;;;;;1.10;1.10;;;;;;;;;;5095902;28;20073;-64
2021/08/08 06:39:54;;;;;;;0.88;0.88;;;;;;;;;;5113969;28;20063;-64
2021/08/08 06:42:19;;;;;;;0.82;0.82;;;;;;;;;;5095822;28;20371;-64
2021/08/08 06:44:48;;;;;;;0.85;0.85;;;;;;;;;;5093289;28;20023;-64
2021/08/08 06:47:13;;;;;;;1.17;1.10;;;;;;;;;;5113817;28;20099;-64
2021/08/08 06:49:38;;;;;;;0.80;0.80;;;;;;;;;;5113732;28;20032;-64
2021/08/08 06:52:05;;;;;;;0.93;0.90;;;;;;;;;;5095355;28;20040;-64
2021/08/08 06:54:32;;;;;;;0.80;0.80;;;;;;;;;;5095364;28;20123;-64
2021/08/08 06:56:57;;;;;;;2.55;0.90;;;;;;;;;;5095310;28;20052;-64
2021/08/08 06:59:29;;;;;;;1.33;1.00;;;;;;;;;;5095124;28;20479;-64
2021/08/08 07:01:56;;;;;;;1.10;1.00;;;;;;;;;;5095396;28;20071;-64
2021/08/08 07:04:22;;;;;;;0.82;0.82;;;;;;;;;;5096018;28;20035;-64
2021/08/08 07:06:47;;;;;;;0.73;0.73;;;;;;;;;;5114281;28;20387;-63
2021/08/08 07:09:13;;;;;;;1.20;1.10;;;;;;;;;;5095119;28;20101;-64
2021/08/08 07:11:40;;;;;;;0.93;0.93;;;;;;;;;;5092446;28;20028;-64
2021/08/08 07:14:13;;;;;;;0.90;0.90;;;;;;;;;;5095136;28;20017;-64
2021/08/08 07:16:40;;;;;;;0.93;0.90;;;;;;;;;;5095057;28;20038;-64
2021/08/08 07:19:05;;;;;;;0.80;0.80;;;;;;;;;;5113362;28;20107;-61
2021/08/08 07:21:31;;;;;;;2.05;0.80;;;;;;;;;;5095469;28;20115;-61
2021/08/08 07:23:58;;;;;;;0.90;0.90;;;;;;;;;;5113052;28;20024;-61
2021/08/08 07:26:24;;;;;;;1.10;1.00;;;;;;;;;;5094747;28;20130;-61
2021/08/08 07:28:49;;;;;;;1.67;0.82;;;;;;;;;;5095082;28;20118;-61
2021/08/08 07:31:15;;;;;;;0.90;0.90;;;;;;;;;;5094775;28;20042;-61
2021/08/08 07:33:40;;;;;;;0.98;0.98;;;;;;;;;;5113254;28;20016;-61
2021/08/08 07:36:07;;;;;;;1.05;0.88;;;;;;;;;;5094987;28;20119;-61
2021/08/08 07:38:32;;;;;;;0.90;0.90;;;;;;;;;;5109602;28;20471;-61
2021/08/08 07:40:58;;;;;;;0.75;0.75;;;;;;;;;;5094925;28;20475;-61
2021/08/08 07:43:24;;;;;;;0.73;0.63;;;;;;;;;;5094914;28;20482;-61
2021/08/08 07:45:49;;;;;;;0.95;0.85;;;;;;;;;;5094186;28;20039;-64
2021/08/08 07:48:15;;;;;;;0.90;0.90;;;;;;;;;;5095315;28;20527;-64
2021/08/08 07:50:41;;;;;;;0.95;0.82;;;;;;;;;;5095062;28;20115;-64
2021/08/08 07:53:07;;;;;;;1.20;1.05;;;;;;;;;;5095475;28;20032;-64
2021/08/08 07:55:34;;;;;;;1.08;1.08;;;;;;;;;;5095225;28;20080;-63
2021/08/08 07:58:00;;;;;;;0.88;0.80;;;;;;;;;;5095557;28;20088;-64
2021/08/08 08:00:26;;;;;;;0.80;0.80;;;;;;;;;;5095448;28;20503;-64
2021/08/08 08:06:34;;;;;;;0.80;0.80;;;;;;;;;;5113835;28;20047;-64
2021/08/08 08:12:35;;;;;;;1.00;1.00;;;;;;;;;;5114056;28;20031;-64
2021/08/08 08:18:36;;;;;;;0.70;0.70;;;;;;;;;;5114013;28;20092;-63
2021/08/08 08:24:37;;;;;;;1.38;1.17;;;;;;;;;;5113924;28;20113;-64
2021/08/08 08:27:03;;;;;;;1.00;0.90;;;;;;;;;;5113307;28;20481;-66
2021/08/08 08:29:28;;;;;;;1.20;1.10;;;;;;;;;;5094708;28;20024;-64
2021/08/08 08:31:54;;;;;;;0.88;0.88;;;;;;;;;;5094678;28;20028;-61
2021/08/08 08:34:20;;;;;;;1.10;1.10;;;;;;;;;;5113170;28;20028;-61
2021/08/08 08:36:45;;;;;;;0.95;0.95;;;;;;;;;;5094867;28;20039;-61
2021/08/08 08:39:11;;;;;;;0.90;0.90;;;;;;;;;;5112900;28;20023;-62
2021/08/08 08:41:36;;;;;;;1.33;1.10;;;;;;;;;;5113589;28;20048;-61
2021/08/08 08:44:03;;;;;;;1.10;1.00;;;;;;;;;;5095012;28;20110;-61
2021/08/08 08:46:30;;;;;;;1.70;1.60;;;;;;;;;;5094704;28;20038;-61
2021/08/08 08:48:56;;;;;;;1.00;1.00;;;;;;;;;;5094853;28;20032;-61
2021/08/08 08:51:27;;;;;;;0.98;0.98;;;;;;;;;;5094694;28;20044;-61
2021/08/08 08:53:53;;;;;;;1.10;1.00;;;;;;;;;;5095293;28;20036;-61
2021/08/08 08:56:19;;;;;;;1.38;1.27;;;;;;;;;;5095155;28;20032;-60
2021/08/08 08:58:46;;;;;;;2.03;0.93;;;;;;;;;;5095000;28;20040;-60
2021/08/08 09:01:12;;;;;;;1.25;1.15;;;;;;;;;;5095065;28;20032;-61
2021/08/08 09:03:37;;;;;;;1.30;1.20;;;;;;;;;;5096354;28;20047;-61
2021/08/08 09:06:04;;;;;;;3.03;1.00;;;;;;;;;;5094992;28;20031;-60
2021/08/08 09:08:29;;;;;;;1.00;1.00;;;;;;;;;;5094756;28;20043;-60
2021/08/08 09:11:02;;;;;;;1.20;0.88;;;;;;;;;;5096222;28;20103;-60
2021/08/08 09:13:30;;;;;;;1.10;1.00;;;;;;;;;;5094975;28;20036;-61
2021/08/08 09:15:56;;;;;;;0.88;0.85;;;;;;;;;;5094903;28;20039;-60
2021/08/08 09:18:22;;;;;;;1.52;0.60;;;;;;;;;;5095841;28;20072;-60
2021/08/08 09:21:07;;;;;;;1.00;1.00;;;;;;;;;;5094573;28;20475;-60
2021/08/08 09:23:33;;;;;;;1.02;1.02;;;;;;;;;;5094849;28;20415;-60
2021/08/08 09:30:06;;;;;;;1.38;1.27;;;;;;;;;;5096003;28;20118;-60
2021/08/08 09:36:07;;;;;;;2.80;1.17;;;;;;;;;;5096150;28;20062;-60
2021/08/08 09:42:15;;;;;;;0.68;0.68;;;;;;;;;;5096038;28;20063;-60
2021/08/08 09:48:15;;;;;;;0.90;0.77;;;;;;;;;;5095688;28;20077;-60
2021/08/08 09:57:52;;;;;;;1.17;1.10;;;;;;;;;;5115881;28;20114;-60
2021/08/08 10:03:53;;;;;;;1.10;1.10;;;;;;;;;;5116018;28;20027;-60
2021/08/08 10:09:56;;;;;;;0.75;0.75;;;;;;;;;;5115869;28;20030;-60
2021/08/08 10:19:32;;;;;;;1.05;0.95;;;;;;;;;;5115695;28;20026;-60
2021/08/08 10:25:33;;;;;;;1.35;1.25;;;;;;;;;;5115451;28;20097;-60
2021/08/08 10:31:34;;;;;;;1.30;1.20;;;;;;;;;;5115448;28;20030;-60
2021/08/08 10:37:35;;;;;;;1.33;1.20;;;;;;;;;;5115323;28;20034;-60
2021/08/08 10:43:36;;;;;;;0.85;0.73;;;;;;;;;;5114988;28;20121;-60
2021/08/08 10:49:36;;;;;;;0.93;0.93;;;;;;;;;;5115119;28;20034;-61
2021/08/08 10:59:26;;;;;;;1.15;0.90;;;;;;;;;;5114908;28;20076;-60
2021/08/08 11:05:33;;;;;;;1.42;1.27;;;;;;;;;;5114668;28;20506;-60
2021/08/08 11:11:35;;;;;;;4.20;1.80;;;;;;;;;;5114413;28;20061;-60
2021/08/08 11:17:36;;;;;;;1.70;1.60;;;;;;;;;;5114655;28;20065;-60
2021/08/08 11:23:37;;;;;;;1.40;1.13;;;;;;;;;;5114556;28;20439;-60
2021/08/08 11:29:38;;;;;;;1.27;1.25;;;;;;;;;;5114448;28;20085;-60
2021/08/08 11:35:38;;;;;;;1.05;1.05;;;;;;;;;;5114149;28;20031;-60
2021/08/08 11:41:41;;;;;;;1.75;1.23;;;;;;;;;;5114338;28;20042;-60
2021/08/08 11:47:41;;;;;;;1.70;0.93;;;;;;;;;;5114564;28;20042;-60
2021/08/08 12:08:10;;;;;;;0.80;0.80;;;;;;;;;;5093727;28;20502;-59
2021/08/08 12:14:10;;;;;;;0.60;0.60;;;;;;;;;;5093399;28;20026;-60
2021/08/08 12:20:11;;;;;;;1.13;1.08;;;;;;;;;;5093348;28;20109;-60
2021/08/08 12:26:11;;;;;;;1.17;1.08;;;;;;;;;;5097265;28;20137;-61
2021/08/08 12:32:15;;;;;;;0.85;0.85;;;;;;;;;;5097412;28;20486;-59
2021/08/08 12:38:16;;;;;;;0.93;0.93;;;;;;;;;;5097264;28;20116;-60
2021/08/08 12:55:03;;;;;;;0.80;0.80;;;;;;;;;;5074397;28;20031;-60
2021/08/08 13:04:39;;;;;;;1.90;1.08;;;;;;;;;;5074252;28;20031;-60
2021/08/08 13:14:20;;;;;;;0.93;0.90;;;;;;;;;;5074352;28;20035;-60
2021/08/08 13:20:21;;;;;;;1.15;1.15;;;;;;;;;;5096209;28;20077;-60
2021/08/08 13:26:21;;;;;;;0.90;0.90;;;;;;;;;;5096146;28;20093;-60
2021/08/08 13:32:22;;;;;;;1.52;0.88;;;;;;;;;;5096275;28;20101;-60
2021/08/08 13:38:23;;;;;;;1.92;0.90;;;;;;;;;;5095925;28;20474;-60
2021/08/08 13:44:24;;;;;;;0.85;0.85;;;;;;;;;;5096019;28;20177;-60
2021/08/08 13:50:25;;;;;;;0.80;0.70;;;;;;;;;;5095641;28;20368;-61
2021/08/08 13:56:26;;;;;;;1.50;1.40;;;;;;;;;;5095525;28;20190;-60
2021/08/08 14:10:35;;;;;;;1.40;0.70;;;;;;;;;;5115899;28;20035;-60
2021/08/08 14:16:49;;;;;;;0.82;0.82;;;;;;;;;;5115751;28;20038;-60
2021/08/08 14:22:49;;;;;;;1.00;0.88;;;;;;;;;;5115666;28;20081;-60
2021/08/08 14:28:49;;;;;;;1.55;1.10;;;;;;;;;;5115529;28;20019;-60
2021/08/08 14:34:50;;;;;;;1.23;0.80;;;;;;;;;;5115426;28;20486;-60
2021/08/08 14:40:51;;;;;;;1.05;0.98;;;;;;;;;;5115082;28;20106;-61
2021/08/08 14:46:55;;;;;;;1.58;0.80;;;;;;;;;;5114917;28;20031;-60
2021/08/08 14:52:56;;;;;;;0.73;0.73;;;;;;;;;;5115124;28;20022;-60
2021/08/08 15:09:49;;;;;;;;;;;;;;;;;;5094909;28;20039;-60
2021/08/08 15:16:04;;;;;;;1.63;1.20;;;;;;;;;;5094316;28;20034;-60
2021/08/08 15:22:04;;;;;;;1.02;0.90;;;;;;;;;;5094270;28;20490;-60
2021/08/08 15:28:05;;;;;;;1.90;1.40;;;;;;;;;;5094187;28;20085;-60
2021/08/08 15:34:06;;;;;;;1.75;1.20;;;;;;;;;;5094122;28;20034;-60
2021/08/08 15:40:07;;;;;;;2.40;1.67;;;;;;;;;;5094019;28;20027;-60
2021/08/08 15:46:08;;;;;;;1.48;1.38;;;;;;;;;;5093627;28;20161;-61
2021/08/08 15:52:09;;;;;;;1.23;1.13;;;;;;;;;;5093624;28;20043;-60
2021/08/08 15:58:11;;;;;;;2.28;1.48;;;;;;;;;;5094505;28;20027;-60
2021/08/08 16:04:42;;;;;;;1.70;1.60;;;;;;;;;;5105069;28;20624;-60
2021/08/08 16:07:09;;;;;;;2.17;1.60;;;;;;;;;;5117651;28;20038;-60
2021/08/08 16:09:34;;;;;;;1.98;1.30;;;;;;;;;;5117544;28;20076;-60
2021/08/08 16:12:00;;;;;;;1.80;1.38;;;;;;;;;;5117698;28;20055;-60
2021/08/08 16:14:27;;;;;;;3.67;1.63;;;;;;;;;;5117853;28;20059;-60
2021/08/08 16:16:53;;;;;;;3.35;1.50;;;;;;;;;;5099274;28;20039;-60
2021/08/08 16:19:19;;;;;;;2.67;1.52;;;;;;;;;;5117600;28;20176;-60
2021/08/08 16:21:45;;;;;;;3.42;1.58;;;;;;;;;;5117538;28;20035;-60
2021/08/08 16:24:10;;;;;;;2.17;1.70;;;;;;;;;;5117483;28;20028;-60
2021/08/08 16:26:37;;;;;;;1.60;1.50;;;;;;;;;;5117266;28;20040;-60
2021/08/08 16:29:03;;;;;;;2.60;1.85;;;;;;;;;;5117234;28;20030;-60
2021/08/08 16:31:29;;;;;;;2.45;1.73;;;;;;;;;;5099011;28;20421;-60
2021/08/08 16:33:56;;;;;;;1.95;1.73;;;;;;;;;;5117421;28;20031;-60
2021/08/08 16:36:22;;;;;;;5.38;1.88;;;;;;;;;;5098853;28;20085;-60
2021/08/08 16:38:47;;;;;;;2.72;1.50;;;;;;;;;;5117122;28;20027;-60
2021/08/08 16:41:13;;;;;;;2.75;1.55;;;;;;;;;;5116820;28;20168;-60
2021/08/08 16:43:38;;;;;;;2.20;1.70;;;;;;;;;;5098716;28;20032;-60
2021/08/08 16:46:04;;;;;;;3.72;1.75;;;;;;;;;;5116914;28;20047;-60
2021/08/08 16:48:29;;;;;;;2.10;1.98;;;;;;;;;;5116980;28;20149;-60
2021/08/08 16:50:55;;;;;;;4.40;1.90;;;;;;;;;;5116731;28;20070;-60
2021/08/08 16:56:55;;;;;;;1.50;1.40;;;;;;;;;;5117392;28;20092;-61
2021/08/08 17:02:55;;;;;;;2.40;1.73;;;;;;;;;;5117251;28;20046;-61
2021/08/08 17:12:06;;;;;;;7.93;7.07;;;;;;;;;;5116889;28;20088;-60
2021/08/08 17:18:07;;;;;;;4.15;3.10;;;;;;;;;;5116721;28;20182;-60
2021/08/08 17:24:08;;;;;;;6.15;5.32;;;;;;;;;;5116829;28;20587;-60
2021/08/08 17:34:18;;;;;;;5.18;4.70;;;;;;;;;;5116683;28;20054;-60
2021/08/08 17:40:19;;;;;;;7.93;5.20;;;;;;;;;;5116496;28;20498;-60
2021/08/08 17:46:23;;;;;;;12.95;10.50;;;;;;;;;;5116353;28;20414;-60
2021/08/08 17:52:23;;;;;;;31.25;15.73;;;;;;;;;;5116305;28;20031;-60
2021/08/08 17:58:23;;;;;;;19.35;15.35;;;;;;;;;;5116193;28;20081;-60
2021/08/08 18:04:24;;;;;;;29.08;20.83;;;;;;;;;;5116077;28;20092;-61
2021/08/08 18:14:41;;;;;;;14.05;11.52;;;;;;;;;;5115624;28;20105;-69
2021/08/08 18:20:41;;;;;;;10.40;9.18;;;;;;;;;;5115551;28;20433;-68
2021/08/08 18:30:20;;;;;;;20.23;13.18;;;;;;;;;;5115548;28;20039;-69
2021/08/08 18:36:21;;;;;;;28.65;19.23;;;;;;;;;;5115477;28;20035;-69
2021/08/08 18:42:22;;;;;;;27.58;17.95;;;;;;;;;;5115078;28;20054;-68
2021/08/08 18:48:25;;;;;;;16.48;8.88;;;;;;;;;;5115234;28;20089;-68
2021/08/08 18:54:26;;;;;;;15.23;11.00;;;;;;;;;;5115100;28;20161;-69
2021/08/08 19:00:27;;;;;;;8.88;6.20;;;;;;;;;;5115015;28;20124;-69
2021/08/08 19:06:27;;;;;;;4.68;4.28;;;;;;;;;;5114630;28;20034;-69
2021/08/08 19:16:06;;;;;;;9.13;3.97;;;;;;;;;;5114754;28;20061;-69
2021/08/08 19:26:18;;;;;;;19.85;12.38;;;;;;;;;;5114481;28;20066;-69
2021/08/08 19:32:19;;;;;;;36.05;21.10;;;;;;;;;;5114370;28;20097;-69
2021/08/08 19:38:21;;;;;;;47.28;29.75;;;;;;;;;;5114443;28;20061;-69
2021/08/08 19:44:22;;;;;;;44.90;28.08;;;;;;;;;;5114103;28;20061;-68
2021/08/08 19:50:22;;;;;;;21.40;13.95;;;;;;;;;;5114055;28;20050;-69
2021/08/08 19:56:23;;;;;;;8.35;6.55;;;;;;;;;;5114268;28;20032;-69
2021/08/08 20:02:24;;;;;;;6.63;4.68;;;;;;;;;;5114180;28;20448;-69
2021/08/08 20:08:24;;;;;;;6.60;3.80;;;;;;;;;;5113879;28;20050;-69
2021/08/08 20:10:50;;;;;;;6.22;4.10;;;;;;;;;;5113763;28;20463;-69
2021/08/08 20:13:16;;;;;;;5.47;4.13;;;;;;;;;;5112993;28;20044;-69
2021/08/08 20:15:41;;;;;;;4.18;3.70;;;;;;;;;;5113404;28;20039;-68
2021/08/08 20:18:08;;;;;;;4.30;3.90;;;;;;;;;;5112896;28;20047;-68
2021/08/08 20:20:34;;;;;;;4.57;3.15;;;;;;;;;;5095099;28;20075;-67
2021/08/08 20:22:59;;;;;;;5.93;3.33;;;;;;;;;;5095289;28;20066;-66
2021/08/08 20:25:25;;;;;;;5.57;3.25;;;;;;;;;;5113170;28;20043;-66
2021/08/08 20:27:50;;;;;;;2.97;2.78;;;;;;;;;;5095261;28;20032;-66
2021/08/08 20:30:17;;;;;;;10.02;4.63;;;;;;;;;;5113228;28;20040;-67
2021/08/08 20:32:43;;;;;;;3.90;3.50;;;;;;;;;;5113494;28;20026;-66
2021/08/08 20:35:09;;;;;;;3.78;3.45;;;;;;;;;;5113190;28;20402;-68
2021/08/08 20:37:40;;;;;;;4.03;3.72;;;;;;;;;;5113273;28;20024;-67
2021/08/08 20:40:07;;;;;;;4.63;3.20;;;;;;;;;;5113208;28;20050;-70
2021/08/08 20:42:32;;;;;;;4.57;3.45;;;;;;;;;;5113656;28;20023;-68
2021/08/08 20:44:58;;;;;;;4.22;3.47;;;;;;;;;;5115121;28;20517;-66
2021/08/08 20:47:23;;;;;;;5.07;3.50;;;;;;;;;;5098727;28;20470;-67
2021/08/08 20:49:48;;;;;;;4.15;3.60;;;;;;;;;;5116903;28;20169;-68
2021/08/08 20:52:14;;;;;;;4.35;3.08;;;;;;;;;;5116702;28;20016;-68
2021/08/08 20:54:39;;;;;;;4.55;3.58;;;;;;;;;;5117001;28;20462;-60
2021/08/08 20:57:05;;;;;;;3.05;2.85;;;;;;;;;;5116889;28;20032;-60
2021/08/08 20:59:30;;;;;;;3.40;3.20;;;;;;;;;;5116973;28;20038;-60
2021/08/08 21:01:56;;;;;;;4.70;3.40;;;;;;;;;;5116740;28;20022;-60
2021/08/08 21:04:21;;;;;;;5.07;3.60;;;;;;;;;;5116686;28;20566;-68
2021/08/08 21:06:47;;;;;;;4.43;3.20;;;;;;;;;;5116432;28;20451;-61
2021/08/08 21:09:12;;;;;;;3.08;2.88;;;;;;;;;;5116388;28;20023;-60
2021/08/08 21:11:38;;;;;;;5.03;3.63;;;;;;;;;;5115824;28;20053;-60
2021/08/08 21:14:06;;;;;;;4.22;3.45;;;;;;;;;;5098489;28;20039;-60
2021/08/08 21:16:32;;;;;;;3.90;3.60;;;;;;;;;;5116822;28;20031;-60
2021/08/08 21:18:57;;;;;;;4.65;3.90;;;;;;;;;;5116284;28;20506;-60
2021/08/08 21:21:23;;;;;;;3.65;3.35;;;;;;;;;;5116361;28;20031;-60
2021/08/08 21:23:48;;;;;;;3.60;3.33;;;;;;;;;;5116577;28;20463;-60